CYTS

Timmins Airport

Timmins, , Canada
TAF AMD CYTS 221513Z 2215/2302 VRB03KT P6SM BKN020 BECMG 2216/2218 20012G22KT BKN040 FM221900 20015G25KT P6SM BKN040 TEMPO 2219/2224 P6SM -SHRA OVC030 BECMG 2222/2224 34010G20KT FM230000 34008KT 5SM RA BR BKN007 OVC010 RMK NXT FCST BY 222000Z
Issued Valid From Valid To
Sep-22 @ 15:13 UTC
(10 minutes ago)
Sep-22 @ 15:00 UTC
(23 minutes ago)
Sep-23 @ 02:00 UTC
(in 11 hours)
to
to
to
to
to
to
TAF AMD CYTS 221513Z 2215/2302 VRB03KT P6SM BKN020 BECMG 2216/2218 20012G22KT BKN040 FM221900 20015G25KT P6SM BKN040 TEMPO 2219/2224 P6SM -SHRA OVC030 BECMG 2222/2224 34010G20KT FM230000 34008KT 5SM RA BR BKN007 OVC010 RMK NXT FCST BY 222000Z
Issued Sep-22 @ 15:13 UTC
(10 minutes ago)
Valid From Sep-22 @ 15:00 UTC
(23 minutes ago)
Valid To Sep-23 @ 02:00 UTC
(in 11 hours)
-
-
-
-
-
-